Time;durP1;ratioP1;P1;durP2;ratioP2;P2;SDS_P1;SDS_P2;PMS_P1;PMS_P2;Temp;Humidity;BMP_temperature;BMP_pressure;BME280_temperature;BME280_humidity;BME280_pressure;Samples;Min_cycle;Max_cycle;Signal;HPM_P1;HPM_P2
2021/12/13 00:01:34;;;;;;;39.35;16.58;;;9.80;99.90;;;;;;5050099;28;20049;-79
2021/12/13 00:04:12;;;;;;;28.15;13.77;;;9.80;99.90;;;;;;5067641;28;20481;-79
2021/12/13 00:06:44;;;;;;;27.67;14.18;;;9.90;99.90;;;;;;5075901;28;20048;-79
2021/12/13 00:09:19;;;;;;;28.60;14.55;;;9.80;99.90;;;;;;5058571;28;20396;-79
2021/12/13 00:11:48;;;;;;;32.53;14.75;;;9.80;99.90;;;;;;5075106;28;20046;-79
2021/12/13 00:14:21;;;;;;;24.63;13.15;;;9.80;99.90;;;;;;5049795;28;20443;-78
2021/12/13 00:17:09;;;;;;;27.02;13.23;;;10.50;99.90;;;;;;5074636;28;20091;-79
2021/12/13 00:19:44;;;;;;;26.95;13.50;;;9.80;99.90;;;;;;5086380;28;20554;-79
2021/12/13 00:22:24;;;;;;;31.42;14.20;;;9.80;99.90;;;;;;5067189;28;20075;-80
2021/12/13 00:24:52;;;;;;;41.25;17.52;;;9.80;99.90;;;;;;5075853;28;20054;-79
2021/12/13 00:27:28;;;;;;;32.03;14.60;;;9.80;99.90;;;;;;5075397;28;20394;-79
2021/12/13 00:30:14;;;;;;;28.73;14.40;;;9.80;99.90;;;;;;5071327;28;20086;-78
2021/12/13 00:32:56;;;;;;;33.88;16.40;;;9.90;99.90;;;;;;5075109;28;20499;-79
2021/12/13 00:35:26;;;;;;;29.10;14.23;;;9.80;99.90;;;;;;5050581;28;20053;-79
2021/12/13 00:37:57;;;;;;;30.75;14.77;;;9.90;99.90;;;;;;5076960;28;20049;-80
2021/12/13 00:40:31;;;;;;;51.75;18.40;;;9.90;99.90;;;;;;5058572;28;20137;-79
2021/12/13 00:43:07;;;;;;;33.50;17.25;;;9.80;99.90;;;;;;5086026;28;20032;-79
2021/12/13 00:45:38;;;;;;;37.78;17.00;;;9.80;99.90;;;;;;5069452;28;20062;-78
2021/12/13 00:48:06;;;;;;;35.08;16.20;;;9.80;99.90;;;;;;5068864;28;20482;-79
2021/12/13 00:50:44;;;;;;;31.42;15.52;;;9.90;99.90;;;;;;5058472;28;20491;-79
2021/12/13 00:53:15;;;;;;;38.72;17.23;;;9.80;99.90;;;;;;5075784;28;20045;-79
2021/12/13 00:55:44;;;;;;;38.95;15.68;;;9.80;99.90;;;;;;5075335;28;20034;-79
2021/12/13 00:58:13;;;;;;;44.05;17.98;;;11.20;99.90;;;;;;5089285;28;20040;-80
2021/12/13 01:00:53;;;;;;;43.35;18.08;;;9.80;99.90;;;;;;5075217;28;20085;-79
2021/12/13 01:03:27;;;;;;;59.17;21.42;;;9.80;99.90;;;;;;5051419;28;20046;-80
2021/12/13 01:06:18;;;;;;;51.85;20.08;;;9.80;99.90;;;;;;5077112;28;20523;-79
2021/12/13 01:09:41;;;;;;;50.63;20.45;;;9.90;99.90;;;;;;5091672;28;20440;-79
2021/12/13 01:12:13;;;;;;;47.95;19.42;;;9.80;99.90;;;;;;5085290;28;20037;-79
2021/12/13 01:14:58;;;;;;;68.97;22.10;;;9.90;99.90;;;;;;5057954;28;20043;-79
2021/12/13 01:17:40;;;;;;;64.18;21.50;;;9.90;99.90;;;;;;5050539;28;20056;-79
2021/12/13 01:20:24;;;;;;;53.35;19.05;;;9.80;99.90;;;;;;5071216;28;20095;-78
2021/12/13 01:23:00;;;;;;;48.00;18.77;;;9.90;99.90;;;;;;5095485;28;20073;-79
2021/12/13 01:28:32;;;;;;;47.97;18.90;;;9.90;99.90;;;;;;5087738;28;20046;-78
2021/12/13 01:31:07;;;;;;;54.40;19.42;;;9.90;99.90;;;;;;5053019;28;20372;-79
2021/12/13 01:33:33;;;;;;;52.78;18.70;;;9.90;99.90;;;;;;5061703;28;20045;-79
2021/12/13 01:36:04;;;;;;;54.55;17.77;;;9.90;99.90;;;;;;5084070;28;20504;-79
2021/12/13 01:38:35;;;;;;;44.28;16.23;;;9.90;99.90;;;;;;5095387;28;20143;-79
2021/12/13 01:41:13;;;;;;;29.40;14.48;;;9.90;99.90;;;;;;5053862;28;20047;-79
2021/12/13 01:43:48;;;;;;;30.77;14.68;;;9.90;99.90;;;;;;5061476;28;20557;-79
2021/12/13 01:46:15;;;;;;;29.48;14.77;;;9.90;99.90;;;;;;5056584;28;20139;-79
2021/12/13 01:48:45;;;;;;;30.63;14.05;;;9.90;99.90;;;;;;5060147;28;20459;-79
2021/12/13 01:51:15;;;;;;;19.83;12.32;;;9.90;99.90;;;;;;5067305;28;20039;-79
2021/12/13 01:53:46;;;;;;;32.90;14.43;;;9.90;99.90;;;;;;5095519;28;20441;-79
2021/12/13 01:56:37;;;;;;;24.80;16.10;;;9.90;99.90;;;;;;5078417;28;20046;-79
2021/12/13 02:02:09;;;;;;;29.98;14.93;;;9.90;99.90;;;;;;5063435;28;20609;-79
2021/12/13 02:04:35;;;;;;;28.02;15.18;;;9.90;99.90;;;;;;5077925;28;20389;-79
2021/12/13 02:07:03;;;;;;;28.20;15.52;;;9.90;99.90;;;;;;5059387;28;20053;-78
2021/12/13 02:09:47;;;;;;;32.75;18.20;;;9.90;99.90;;;;;;5094113;28;20043;-79
2021/12/13 02:12:16;;;;;;;32.13;18.13;;;9.80;99.90;;;;;;5062037;28;20042;-79
2021/12/13 02:14:48;;;;;;;31.05;17.55;;;9.80;99.90;;;;;;5077361;28;20049;-79
2021/12/13 02:17:19;;;;;;;43.40;21.05;;;11.20;99.90;;;;;;5091972;28;20052;-80
2021/12/13 02:19:51;;;;;;;31.83;19.08;;;9.90;99.90;;;;;;5060808;28;20504;-79
2021/12/13 02:22:33;;;;;;;47.78;22.17;;;9.90;99.90;;;;;;5068828;28;20054;-80
2021/12/13 02:25:14;;;;;;;42.92;21.65;;;9.90;99.90;;;;;;5056712;28;20053;-79
2021/12/13 02:27:58;;;;;;;40.22;20.02;;;9.90;99.90;;;;;;5094451;28;20047;-79
2021/12/13 02:30:54;;;;;;;36.50;19.17;;;9.90;99.90;;;;;;5050918;28;20049;-79
2021/12/13 02:33:26;;;;;;;36.22;20.25;;;9.90;99.90;;;;;;5068645;28;20046;-80
2021/12/13 02:35:59;;;;;;;39.90;19.63;;;9.90;99.90;;;;;;5060032;28;20088;-80
2021/12/13 02:38:25;;;;;;;44.10;21.13;;;9.90;99.90;;;;;;5051538;28;20037;-79
2021/12/13 02:40:52;;;;;;;39.95;19.55;;;9.90;99.90;;;;;;5059954;28;20038;-80
2021/12/13 02:43:22;;;;;;;28.42;16.02;;;10.00;99.90;;;;;;5085284;28;20048;-79
2021/12/13 02:45:52;;;;;;;38.95;18.23;;;9.90;99.90;;;;;;5075865;28;20128;-79
2021/12/13 02:48:37;;;;;;;47.22;20.13;;;10.00;99.90;;;;;;5093028;28;20055;-79
2021/12/13 02:51:24;;;;;;;42.58;20.10;;;9.90;99.90;;;;;;5061858;28;20043;-79
2021/12/13 02:53:55;;;;;;;34.92;19.27;;;9.90;99.90;;;;;;5052083;28;20057;-80
2021/12/13 02:56:24;;;;;;;45.20;20.33;;;10.00;99.90;;;;;;5068323;28;20049;-80
2021/12/13 02:58:51;;;;;;;50.58;21.77;;;10.70;99.90;;;;;;5076023;28;20386;-79
2021/12/13 03:01:54;;;;;;;48.05;20.60;;;9.90;99.90;;;;;;5068162;28;20049;-78
2021/12/13 03:04:23;;;;;;;44.00;18.80;;;9.80;99.90;;;;;;5068018;28;20829;-79
2021/12/13 03:07:14;;;;;;;40.20;19.60;;;9.90;99.90;;;;;;5075394;28;20049;-80
2021/12/13 03:09:45;;;;;;;34.83;18.77;;;9.90;99.90;;;;;;5052959;28;20100;-80
2021/12/13 03:12:14;;;;;;;29.05;15.45;;;9.90;99.90;;;;;;5088039;28;20065;-79
2021/12/13 03:14:51;;;;;;;31.83;16.67;;;9.90;99.90;;;;;;5074279;28;20086;-79
2021/12/13 03:17:27;;;;;;;28.05;16.58;;;9.90;99.90;;;;;;5050504;28;20045;-79
2021/12/13 03:20:17;;;;;;;27.88;15.57;;;9.90;99.90;;;;;;5049469;28;20049;-80
2021/12/13 03:22:48;;;;;;;26.40;14.48;;;9.90;99.90;;;;;;5028605;28;20091;-80
2021/12/13 03:25:32;;;;;;;34.55;15.05;;;9.90;99.90;;;;;;5063756;28;20434;-80
2021/12/13 03:28:35;;;;;;;28.67;14.05;;;9.80;99.90;;;;;;5063925;28;20394;-79
2021/12/13 03:31:10;;;;;;;33.25;13.05;;;9.90;99.90;;;;;;5049926;28;20039;-81
2021/12/13 03:33:48;;;;;;;27.02;13.60;;;9.90;99.90;;;;;;5032562;28;20046;-78
2021/12/13 03:36:34;;;;;;;31.45;12.13;;;9.90;99.90;;;;;;5062903;28;20050;-80
2021/12/13 03:39:00;;;;;;;24.73;11.57;;;9.80;99.90;;;;;;5063391;28;20051;-79
2021/12/13 03:41:26;;;;;;;24.02;12.25;;;9.80;99.90;;;;;;5048471;28;20042;-78
2021/12/13 03:44:08;;;;;;;24.35;11.30;;;9.70;99.90;;;;;;5032433;28;20389;-79
2021/12/13 03:46:35;;;;;;;28.10;10.98;;;9.70;99.90;;;;;;5043096;28;20509;-79
2021/12/13 03:49:06;;;;;;;28.52;10.07;;;10.60;99.90;;;;;;5053112;28;20120;-79
2021/12/13 03:51:35;;;;;;;18.75;9.38;;;9.60;99.90;;;;;;5050642;28;20032;-79
2021/12/13 03:54:04;;;;;;;21.60;10.10;;;9.60;99.90;;;;;;5046093;28;20050;-79
2021/12/13 03:56:36;;;;;;;25.80;9.52;;;9.60;99.90;;;;;;5048813;28;20080;-79
2021/12/13 03:59:09;;;;;;;22.13;9.63;;;9.60;99.90;;;;;;5053513;28;20046;-78
2021/12/13 04:01:41;;;;;;;22.08;9.02;;;9.60;99.90;;;;;;5067164;28;20061;-79
2021/12/13 04:04:17;;;;;;;24.85;9.43;;;9.50;99.90;;;;;;5041661;28;20395;-79
2021/12/13 04:06:54;;;;;;;21.90;8.95;;;9.50;99.90;;;;;;5032586;28;20053;-79
2021/12/13 04:09:21;;;;;;;18.35;8.13;;;9.50;99.90;;;;;;5047760;28;20079;-80
2021/12/13 04:11:51;;;;;;;21.80;8.95;;;9.50;99.90;;;;;;5050427;28;20051;-79
2021/12/13 04:14:25;;;;;;;19.50;8.25;;;9.50;99.90;;;;;;5032380;28;20182;-79
2021/12/13 04:17:09;;;;;;;20.80;7.53;;;9.40;99.90;;;;;;5057484;28;20187;-79
2021/12/13 04:19:46;;;;;;;20.70;8.80;;;9.40;99.90;;;;;;5068784;28;20062;-79
2021/12/13 04:22:13;;;;;;;20.90;7.97;;;9.50;99.90;;;;;;5085227;28;20042;-80
2021/12/13 04:25:11;;;;;;;16.88;7.47;;;9.40;99.90;;;;;;5067505;28;20040;-79
2021/12/13 04:27:53;;;;;;;16.90;6.60;;;9.40;99.90;;;;;;5052087;28;20050;-78
2021/12/13 04:30:31;;;;;;;15.60;6.50;;;9.40;99.90;;;;;;5089568;28;20027;-79
2021/12/13 04:33:01;;;;;;;12.75;4.68;;;9.30;99.90;;;;;;5092445;28;20048;-78
2021/12/13 04:35:28;;;;;;;8.63;4.47;;;9.40;99.90;;;;;;5067037;28;20034;-79
2021/12/13 04:37:58;;;;;;;11.65;3.47;;;9.40;99.90;;;;;;5074209;28;20054;-79
2021/12/13 04:40:27;;;;;;;10.43;3.70;;;9.40;99.90;;;;;;5041745;28;20171;-79
2021/12/13 04:43:11;;;;;;;6.82;2.60;;;9.40;99.90;;;;;;5075551;28;20099;-80
2021/12/13 04:45:40;;;;;;;8.85;3.00;;;10.10;99.90;;;;;;5067734;28;20050;-78
2021/12/13 04:48:09;;;;;;;5.90;2.35;;;9.30;99.90;;;;;;5079734;28;20436;-78
2021/12/13 04:50:51;;;;;;;7.88;2.83;;;9.30;99.90;;;;;;5075533;28;20066;-79
2021/12/13 04:53:29;;;;;;;5.18;2.10;;;9.30;99.90;;;;;;5078819;28;20490;-79
2021/12/13 04:55:58;;;;;;;7.68;3.05;;;8.10;99.90;;;;;;5062211;28;20527;-79
2021/12/13 04:58:24;;;;;;;8.60;2.83;;;9.30;99.90;;;;;;5078142;28;20505;-80
2021/12/13 05:00:55;;;;;;;7.75;2.85;;;9.30;99.90;;;;;;5095965;28;20039;-79
2021/12/13 05:03:25;;;;;;;8.38;3.25;;;9.30;99.90;;;;;;5063122;28;20042;-78
2021/12/13 05:05:51;;;;;;;7.40;2.95;;;9.30;99.90;;;;;;5077620;28;20404;-80
2021/12/13 05:08:20;;;;;;;7.07;3.67;;;9.30;99.90;;;;;;5090261;28;20046;-78
2021/12/13 05:10:48;;;;;;;7.95;3.60;;;9.30;99.90;;;;;;5095963;28;20127;-81
2021/12/13 05:13:26;;;;;;;6.85;3.65;;;9.30;99.90;;;;;;5084801;28;20441;-80
2021/12/13 05:15:54;;;;;;;7.85;3.35;;;9.30;99.90;;;;;;5038211;28;20440;-80
2021/12/13 05:18:24;;;;;;;6.18;2.97;;;9.30;99.90;;;;;;5048763;28;20048;-79
2021/12/13 05:21:04;;;;;;;10.60;2.97;;;9.30;99.90;;;;;;5052568;28;20064;-79
2021/12/13 05:23:32;;;;;;;6.25;3.55;;;9.30;99.90;;;;;;5044692;28;20046;-80
2021/12/13 05:26:02;;;;;;;9.88;3.25;;;9.90;99.90;;;;;;5051954;28;20058;-79
2021/12/13 05:28:39;;;;;;;6.15;4.03;;;9.20;99.90;;;;;;5027323;28;20498;-80
2021/12/13 05:31:15;;;;;;;7.63;3.88;;;9.30;99.90;;;;;;5054167;28;20126;-78
2021/12/13 05:33:41;;;;;;;4.72;3.42;;;9.20;99.90;;;;;;5069468;28;20084;-79
2021/12/13 05:36:17;;;;;;;10.68;4.00;;;9.20;99.90;;;;;;5064782;28;20051;-79
2021/12/13 05:38:46;;;;;;;9.93;4.38;;;9.20;99.90;;;;;;5051431;28;20046;-79
2021/12/13 05:41:19;;;;;;;9.75;4.75;;;9.20;99.90;;;;;;5041775;28;20037;-79
2021/12/13 05:44:12;;;;;;;9.90;4.68;;;9.20;99.90;;;;;;5052530;28;20043;-78
2021/12/13 05:46:44;;;;;;;5.65;5.03;;;9.20;99.90;;;;;;5046438;28;20065;-79
2021/12/13 05:49:27;;;;;;;10.38;4.78;;;9.20;99.90;;;;;;5056884;28;20057;-79
2021/12/13 05:52:13;;;;;;;11.30;5.32;;;9.10;99.90;;;;;;5065130;28;20138;-80
2021/12/13 05:54:49;;;;;;;12.43;6.50;;;9.20;99.90;;;;;;5044394;28;20042;-80
2021/12/13 05:57:27;;;;;;;14.18;6.82;;;9.20;99.90;;;;;;5060315;28;20405;-81
2021/12/13 06:00:02;;;;;;;15.95;7.95;;;9.20;99.90;;;;;;5068825;28;20035;-80
2021/12/13 06:02:58;;;;;;;10.75;6.50;;;9.20;99.90;;;;;;5025717;28;20034;-79
2021/12/13 06:05:38;;;;;;;9.23;6.50;;;9.10;99.90;;;;;;5048907;28;20075;-80
2021/12/13 06:08:18;;;;;;;12.30;7.65;;;9.10;99.90;;;;;;5050220;28;20059;-78
2021/12/13 06:10:51;;;;;;;12.55;8.30;;;9.10;99.90;;;;;;5056826;28;20084;-80
2021/12/13 06:13:46;;;;;;;15.60;7.43;;;9.10;99.90;;;;;;5060903;28;20046;-80
2021/12/13 06:16:27;;;;;;;21.38;8.48;;;9.10;99.90;;;;;;5043775;28;20043;-81
2021/12/13 06:19:08;;;;;;;15.68;7.30;;;9.10;99.90;;;;;;5034588;28;20076;-80
2021/12/13 06:22:00;;;;;;;14.95;7.78;;;9.10;99.90;;;;;;5043928;28;20053;-79
2021/12/13 06:24:39;;;;;;;12.50;7.50;;;9.10;99.90;;;;;;5066665;28;20413;-78
2021/12/13 06:27:16;;;;;;;14.60;8.65;;;9.10;99.90;;;;;;5066571;28;20043;-79
2021/12/13 06:29:46;;;;;;;13.82;7.82;;;9.00;99.90;;;;;;5033319;28;20045;-81
2021/12/13 06:32:47;;;;;;;13.45;7.65;;;9.00;99.90;;;;;;5040065;28;20409;-81
2021/12/13 06:35:35;;;;;;;12.13;7.32;;;9.00;99.90;;;;;;5060746;28;20116;-80
2021/12/13 06:38:20;;;;;;;12.63;7.28;;;9.00;99.90;;;;;;5033130;28;20056;-79
2021/12/13 06:41:31;;;;;;;14.60;6.97;;;9.90;99.90;;;;;;5029711;28;20122;-80
2021/12/13 06:44:00;;;;;;;15.10;7.68;;;9.00;99.90;;;;;;5029028;28;20044;-81
2021/12/13 06:46:26;;;;;;;12.32;6.88;;;9.00;99.90;;;;;;5048683;28;20577;-80
2021/12/13 06:49:05;;;;;;;10.05;7.55;;;9.00;99.90;;;;;;5067981;28;20075;-79
2021/12/13 06:51:47;;;;;;;15.52;8.18;;;9.00;99.90;;;;;;5025253;28;20040;-79
2021/12/13 06:54:27;;;;;;;11.55;7.65;;;9.00;99.90;;;;;;5039575;28;20661;-80
2021/12/13 06:57:12;;;;;;;8.13;7.15;;;9.00;99.90;;;;;;5068251;28;20047;-79
2021/12/13 06:59:48;;;;;;;15.18;8.32;;;9.00;99.90;;;;;;5042465;28;20050;-78
2021/12/13 07:02:35;;;;;;;10.95;7.35;;;9.00;99.90;;;;;;5056279;28;20038;-80
2021/12/13 07:05:08;;;;;;;12.75;6.95;;;9.00;99.90;;;;;;5050727;28;20491;-79
2021/12/13 07:08:02;;;;;;;15.10;8.48;;;9.00;99.90;;;;;;5025822;28;20086;-80
2021/12/13 07:10:33;;;;;;;15.07;7.95;;;9.00;99.90;;;;;;5029081;28;20345;-80
2021/12/13 07:13:04;;;;;;;14.18;8.57;;;9.00;99.90;;;;;;5032798;28;20050;-80
2021/12/13 07:15:45;;;;;;;11.20;8.13;;;9.00;99.90;;;;;;5033131;28;20445;-78
2021/12/13 07:18:28;;;;;;;12.55;8.65;;;9.00;99.90;;;;;;5036472;28;20101;-79
2021/12/13 07:21:01;;;;;;;12.75;8.68;;;8.90;99.90;;;;;;5050590;28;20043;-78
2021/12/13 07:23:28;;;;;;;13.48;8.77;;;9.00;99.90;;;;;;5051581;28;20030;-80
2021/12/13 07:25:55;;;;;;;12.43;8.73;;;8.90;99.90;;;;;;5049489;28;20060;-79
2021/12/13 07:28:34;;;;;;;15.80;9.25;;;8.90;99.90;;;;;;5043708;28;20539;-80
2021/12/13 07:31:02;;;;;;;13.15;8.48;;;9.00;99.90;;;;;;5067847;28;20051;-80
2021/12/13 07:33:38;;;;;;;15.63;10.50;;;8.90;99.90;;;;;;5034046;28;20235;-79
2021/12/13 07:36:20;;;;;;;15.80;10.93;;;8.90;99.90;;;;;;5049130;28;20141;-78
2021/12/13 07:38:53;;;;;;;14.70;10.63;;;8.90;99.90;;;;;;5027022;28;20046;-80
2021/12/13 07:41:19;;;;;;;16.67;10.52;;;8.90;99.90;;;;;;5058487;28;20133;-79
2021/12/13 07:43:46;;;;;;;16.08;10.85;;;8.90;99.90;;;;;;5067159;28;20063;-80
2021/12/13 07:46:22;;;;;;;15.10;11.32;;;8.90;99.90;;;;;;5061975;28;20050;-81
2021/12/13 07:48:49;;;;;;;112.20;83.38;;;8.90;99.90;;;;;;5049261;28;20358;-80
2021/12/13 07:51:27;;;;;;;23.38;14.35;;;9.00;99.90;;;;;;5039217;28;20045;-80
2021/12/13 07:53:59;;;;;;;18.98;12.60;;;9.00;99.90;;;;;;5049697;28;20055;-78
2021/12/13 07:56:39;;;;;;;18.92;12.70;;;9.00;99.90;;;;;;5036658;28;20558;-81
2021/12/13 07:59:24;;;;;;;38.53;24.83;;;9.00;99.90;;;;;;5049258;28;20050;-78
2021/12/13 08:01:52;;;;;;;22.17;15.77;;;8.90;99.90;;;;;;5026909;28;20030;-81
2021/12/13 08:04:42;;;;;;;20.27;13.85;;;9.00;99.90;;;;;;5040834;28;20042;-80
2021/12/13 08:07:21;;;;;;;18.48;12.73;;;9.00;99.90;;;;;;5047927;28;20044;-80
2021/12/13 08:09:50;;;;;;;19.90;13.32;;;9.00;99.90;;;;;;5032034;28;20050;-80
2021/12/13 08:12:18;;;;;;;20.25;14.20;;;9.00;99.90;;;;;;5025971;28;20043;-78
2021/12/13 08:14:49;;;;;;;20.52;14.82;;;9.00;99.90;;;;;;5066717;28;20092;-79
2021/12/13 08:17:22;;;;;;;24.48;15.07;;;8.90;99.90;;;;;;5060151;28;20051;-80
2021/12/13 08:20:19;;;;;;;23.73;14.77;;;8.90;99.90;;;;;;5024700;28;20077;-75
2021/12/13 08:22:49;;;;;;;23.50;15.07;;;9.00;99.90;;;;;;5041163;28;20539;-78
2021/12/13 08:25:27;;;;;;;19.90;13.88;;;9.00;99.90;;;;;;5023345;28;20054;-79
2021/12/13 08:28:06;;;;;;;20.95;14.73;;;9.00;99.90;;;;;;5017670;28;20054;-80
2021/12/13 08:30:42;;;;;;;22.20;15.45;;;9.00;99.90;;;;;;5020428;28;20048;-79
2021/12/13 08:33:19;;;;;;;17.95;14.20;;;9.00;99.90;;;;;;5042618;28;20606;-79
2021/12/13 08:36:14;;;;;;;22.42;16.38;;;9.00;99.90;;;;;;5035713;28;20489;-77
2021/12/13 08:38:45;;;;;;;20.90;15.57;;;9.00;99.90;;;;;;5014204;28;20074;-79
2021/12/13 08:41:50;;;;;;;20.88;14.98;;;9.00;99.90;;;;;;5023973;28;20537;-80
2021/12/13 08:44:27;;;;;;;24.05;15.80;;;9.00;99.90;;;;;;4991142;28;20050;-79
2021/12/13 08:46:55;;;;;;;22.08;16.48;;;10.20;99.90;;;;;;5042647;28;20052;-77
2021/12/13 08:49:33;;;;;;;29.08;20.08;;;9.00;99.90;;;;;;5039816;28;20069;-78
2021/12/13 08:52:14;;;;;;;23.52;17.52;;;9.00;99.90;;;;;;4996404;28;20067;-77
2021/12/13 08:54:51;;;;;;;20.98;15.52;;;9.10;99.90;;;;;;4997575;28;20133;-77
2021/12/13 08:57:39;;;;;;;20.92;14.98;;;10.90;99.90;;;;;;5034754;28;20046;-77
2021/12/13 09:00:14;;;;;;;23.95;16.25;;;9.10;99.90;;;;;;5000426;28;20038;-79
2021/12/13 09:03:11;;;;;;;21.40;14.98;;;8.80;99.90;;;;;;5030945;28;20050;-80
2021/12/13 09:05:51;;;;;;;24.35;15.93;;;9.10;99.90;;;;;;5037602;28;20071;-80
2021/12/13 09:08:23;;;;;;;16.73;15.02;;;9.10;99.90;;;;;;5049707;28;20034;-79
2021/12/13 09:10:52;;;;;;;20.77;15.25;;;8.70;99.90;;;;;;5071032;28;20114;-80
2021/12/13 09:13:36;;;;;;;22.27;15.73;;;9.10;99.90;;;;;;5049803;28;20050;-80
2021/12/13 09:16:02;;;;;;;18.63;15.60;;;9.00;99.90;;;;;;5027244;28;20111;-78
2021/12/13 09:18:28;;;;;;;19.05;14.50;;;9.20;99.90;;;;;;5037492;28;20058;-78
2021/12/13 09:20:56;;;;;;;25.23;15.48;;;9.10;99.90;;;;;;5048344;28;20057;-79
2021/12/13 09:23:35;;;;;;;19.98;14.25;;;9.20;99.90;;;;;;5041762;28;20077;-77
2021/12/13 09:26:11;;;;;;;36.78;27.35;;;9.20;99.90;;;;;;5045049;28;20062;-80
2021/12/13 09:28:49;;;;;;;29.02;19.48;;;9.20;99.90;;;;;;5049633;28;20125;-77
2021/12/13 09:31:28;;;;;;;20.58;15.43;;;9.20;99.90;;;;;;5061646;28;20125;-77
2021/12/13 09:34:01;;;;;;;17.65;14.32;;;9.20;99.90;;;;;;5046889;28;20185;-76
2021/12/13 09:36:31;;;;;;;19.05;15.07;;;9.20;99.90;;;;;;5020233;28;20124;-79
2021/12/13 09:38:58;;;;;;;19.67;14.60;;;9.20;99.90;;;;;;5049115;28;20039;-77
2021/12/13 09:41:52;;;;;;;15.73;12.77;;;9.30;99.90;;;;;;5029898;28;20053;-77
2021/12/13 09:44:33;;;;;;;19.20;14.32;;;9.30;99.90;;;;;;5007311;28;20053;-79
2021/12/13 09:47:07;;;;;;;15.93;14.20;;;9.30;99.90;;;;;;5039573;28;20046;-79
2021/12/13 09:49:51;;;;;;;20.85;13.68;;;9.20;99.90;;;;;;5046894;28;20381;-78
2021/12/13 09:52:38;;;;;;;15.15;12.93;;;9.30;99.90;;;;;;5043589;28;20052;-78
2021/12/13 09:55:26;;;;;;;17.30;13.65;;;9.20;99.90;;;;;;5042706;28;20146;-78
2021/12/13 09:57:58;;;;;;;15.20;12.98;;;10.00;99.90;;;;;;5027748;28;20467;-80
2021/12/13 10:00:31;;;;;;;15.85;12.60;;;9.30;99.90;;;;;;5038013;28;20566;-77
2021/12/13 10:03:07;;;;;;;16.57;12.77;;;9.30;99.90;;;;;;5071531;28;20208;-78
2021/12/13 10:05:41;;;;;;;19.05;13.38;;;9.30;99.90;;;;;;5053039;28;20589;-79
2021/12/13 10:08:12;;;;;;;16.35;13.02;;;9.30;99.90;;;;;;5043388;28;20090;-78
2021/12/13 10:10:43;;;;;;;18.13;12.48;;;9.30;99.90;;;;;;5049217;28;20497;-80
2021/12/13 10:13:15;;;;;;;16.77;14.48;;;9.30;99.90;;;;;;5068694;28;20399;-78
2021/12/13 10:15:49;;;;;;;15.98;13.35;;;9.30;99.90;;;;;;5019272;28;20075;-79
2021/12/13 10:18:17;;;;;;;;;;;9.00;99.90;;;;;;5004610;28;20076;-78
2021/12/13 10:20:53;;;;;;;16.67;13.40;;;9.10;99.90;;;;;;5024731;28;19977;-77
2021/12/13 10:23:24;;;;;;;15.23;13.38;;;9.30;99.90;;;;;;5052553;28;20037;-79
2021/12/13 10:25:52;;;;;;;15.93;13.82;;;9.30;99.90;;;;;;5046848;27;20453;-77
2021/12/13 10:28:28;;;;;;;15.32;13.05;;;9.30;99.90;;;;;;5010255;28;20046;-77
2021/12/13 10:31:23;;;;;;;13.82;12.38;;;9.30;99.90;;;;;;5047128;28;20054;-80
2021/12/13 10:33:49;;;;;;;;;;;9.30;99.90;;;;;;5047122;28;20086;-80
2021/12/13 10:36:15;;;;;;;17.27;12.93;;;9.30;99.90;;;;;;5032648;28;19959;-77
2021/12/13 10:38:48;;;;;;;18.42;12.98;;;9.20;99.90;;;;;;5070819;28;20052;-80
2021/12/13 10:41:24;;;;;;;14.68;12.95;;;9.20;99.90;;;;;;5040941;28;20414;-79
2021/12/13 10:43:54;;;;;;;14.57;12.70;;;9.30;99.90;;;;;;5025858;28;20048;-77
2021/12/13 10:46:32;;;;;;;22.20;17.60;;;9.20;99.90;;;;;;5060517;28;20046;-77
2021/12/13 10:49:04;;;;;;;18.02;13.18;;;9.40;99.90;;;;;;5027173;28;20034;-80
2021/12/13 10:51:34;;;;;;;15.43;13.32;;;9.40;99.90;;;;;;5044336;28;20397;-77
2021/12/13 10:54:06;;;;;;;15.85;12.48;;;9.40;99.90;;;;;;5068967;28;20079;-80
2021/12/13 10:56:39;;;;;;;18.80;13.50;;;10.70;99.90;;;;;;5061656;28;20059;-80
2021/12/13 10:59:09;;;;;;;16.35;12.48;;;10.10;99.90;;;;;;5050171;28;20133;-77
2021/12/13 11:01:41;;;;;;;18.67;14.15;;;9.40;99.90;;;;;;5042715;28;20478;-79
2021/12/13 11:04:10;;;;;;;16.65;13.60;;;9.40;99.90;;;;;;5035562;28;20140;-80
2021/12/13 11:06:38;;;;;;;21.27;14.35;;;9.40;99.90;;;;;;4997506;28;20045;-80
2021/12/13 11:09:09;;;;;;;24.02;16.38;;;9.50;99.90;;;;;;5011002;28;20052;-78
2021/12/13 11:11:45;;;;;;;15.82;11.70;;;9.50;99.90;;;;;;5011807;28;20051;-80
2021/12/13 11:14:15;;;;;;;20.45;13.23;;;9.50;99.90;;;;;;5066463;28;20040;-80
2021/12/13 11:16:57;;;;;;;19.85;13.07;;;9.50;99.90;;;;;;5080517;28;20059;-80
2021/12/13 11:19:28;;;;;;;20.67;13.80;;;9.50;99.90;;;;;;5097673;28;20711;-80
2021/12/13 11:22:03;;;;;;;17.20;13.40;;;9.30;99.90;;;;;;5066607;28;20048;-79
2021/12/13 11:24:33;;;;;;;21.27;13.43;;;9.00;99.90;;;;;;5081272;28;20157;-80
2021/12/13 11:27:05;;;;;;;14.65;12.80;;;9.40;99.90;;;;;;5084629;28;20038;-79
2021/12/13 11:29:32;;;;;;;17.20;13.23;;;9.50;99.90;;;;;;5062101;28;20060;-80
2021/12/13 11:32:38;;;;;;;18.65;14.02;;;9.30;99.90;;;;;;5075943;28;20074;-80
2021/12/13 11:35:07;;;;;;;21.65;12.82;;;9.60;99.90;;;;;;5081107;28;20132;-78
2021/12/13 11:38:13;;;;;;;16.85;12.77;;;9.60;99.90;;;;;;5071486;28;20035;-81
2021/12/13 11:41:04;;;;;;;19.33;14.52;;;9.60;99.90;;;;;;5029836;28;20405;-79
2021/12/13 11:43:43;;;;;;;17.25;12.75;;;9.70;99.90;;;;;;5075440;28;20039;-80
2021/12/13 11:46:31;;;;;;;19.52;13.48;;;9.70;99.90;;;;;;5091159;28;20039;-78
2021/12/13 11:49:39;;;;;;;18.55;13.25;;;9.70;99.90;;;;;;5050927;28;20041;-80
2021/12/13 11:52:15;;;;;;;15.80;11.98;;;9.70;99.90;;;;;;5058686;28;20692;-79
2021/12/13 11:55:05;;;;;;;18.58;13.93;;;9.70;99.90;;;;;;5066590;28;20042;-79
2021/12/13 11:58:08;;;;;;;17.63;13.57;;;9.80;99.90;;;;;;4707241;28;10001063;-80
2021/12/13 12:01:07;;;;;;;19.65;13.90;;;9.90;99.90;;;;;;5056237;28;20041;-80
2021/12/13 12:04:07;;;;;;;16.70;11.75;;;9.80;99.90;;;;;;5058472;28;20046;-78
2021/12/13 12:06:58;;;;;;;22.90;14.48;;;9.80;99.90;;;;;;5085804;28;20453;-80
2021/12/13 12:09:54;;;;;;;18.90;13.40;;;9.80;99.90;;;;;;5090287;28;20051;-80
2021/12/13 12:12:38;;;;;;;19.73;14.40;;;9.70;99.90;;;;;;5085830;28;20044;-80
2021/12/13 12:15:05;;;;;;;16.63;13.80;;;9.80;99.90;;;;;;5048235;28;20593;-78
2021/12/13 12:17:33;;;;;;;17.38;12.18;;;9.80;99.90;;;;;;5084450;28;20467;-80
2021/12/13 12:19:59;;;;;;;19.80;13.30;;;9.80;99.90;;;;;;5066284;28;20061;-80
2021/12/13 12:22:37;;;;;;;20.50;13.38;;;9.70;99.90;;;;;;5057478;28;20042;-80
2021/12/13 12:25:04;;;;;;;17.40;12.73;;;9.70;99.90;;;;;;5050630;28;20049;-80
2021/12/13 12:27:33;;;;;;;19.08;13.23;;;9.70;99.90;;;;;;5098235;28;20050;-80
2021/12/13 12:30:08;;;;;;;20.90;13.35;;;10.90;99.90;;;;;;5034748;28;20035;-80
2021/12/13 12:32:38;;;;;;;22.30;14.30;;;9.70;99.90;;;;;;5072693;28;20057;-79
2021/12/13 12:35:11;;;;;;;21.63;14.63;;;9.70;99.90;;;;;;5091524;28;20116;-79
2021/12/13 12:37:56;;;;;;;20.58;14.40;;;9.60;99.90;;;;;;5090626;28;20075;-79
2021/12/13 12:40:27;;;;;;;22.90;13.73;;;9.60;99.90;;;;;;5062908;28;20051;-79
2021/12/13 12:43:00;;;;;;;23.83;14.25;;;9.60;99.90;;;;;;5078680;28;20051;-80
2021/12/13 12:45:33;;;;;;;28.58;15.43;;;9.60;99.90;;;;;;5075941;28;20556;-80
2021/12/13 12:48:16;;;;;;;27.00;14.30;;;9.60;99.90;;;;;;5092378;28;20498;-80
2021/12/13 12:50:59;;;;;;;21.23;13.80;;;9.50;99.90;;;;;;5070702;28;20040;-80
2021/12/13 12:53:43;;;;;;;20.20;14.90;;;9.60;99.90;;;;;;5070858;28;20035;-78
2021/12/13 12:56:16;;;;;;;19.55;13.43;;;9.60;99.90;;;;;;5066548;28;20042;-80
2021/12/13 12:58:50;;;;;;;22.73;14.07;;;9.80;99.90;;;;;;5067132;28;20491;-79
2021/12/13 13:01:45;;;;;;;26.65;14.02;;;9.60;99.90;;;;;;5082128;28;20050;-80
2021/12/13 13:04:38;;;;;;;19.88;12.88;;;9.60;99.90;;;;;;5058284;28;20054;-77
2021/12/13 13:07:06;;;;;;;22.15;13.32;;;9.60;99.90;;;;;;5067821;28;20054;-79
2021/12/13 13:09:40;;;;;;;22.85;13.73;;;9.60;99.90;;;;;;5058783;28;20125;-78
2021/12/13 13:12:09;;;;;;;21.02;13.15;;;9.60;99.90;;;;;;5049429;28;20084;-80
2021/12/13 13:14:46;;;;;;;22.05;14.18;;;9.60;99.90;;;;;;5058482;28;20107;-79
2021/12/13 13:17:13;;;;;;;20.67;12.55;;;9.60;99.90;;;;;;5060671;28;20099;-79
2021/12/13 13:19:43;;;;;;;21.10;13.75;;;9.60;99.90;;;;;;5061336;28;20042;-78
2021/12/13 13:22:27;;;;;;;21.88;13.90;;;9.60;99.90;;;;;;5053747;28;20049;-80
2021/12/13 13:24:58;;;;;;;16.85;11.80;;;9.60;99.90;;;;;;5060581;28;20367;-79
2021/12/13 13:27:28;;;;;;;16.33;11.60;;;9.50;99.90;;;;;;5044336;28;20042;-77
2021/12/13 13:29:54;;;;;;;19.27;12.32;;;9.60;99.90;;;;;;5053048;28;20216;-78
2021/12/13 13:32:20;;;;;;;18.50;12.52;;;9.70;99.90;;;;;;5059779;28;20045;-79
2021/12/13 13:34:51;;;;;;;16.33;11.77;;;9.20;99.90;;;;;;5088347;28;20043;-79